Time;durP1;ratioP1;P1;durP2;ratioP2;P2;SDS_P1;SDS_P2;PMS_P1;PMS_P2;Temp;Humidity;BMP_temperature;BMP_pressure;BME280_temperature;BME280_humidity;BME280_pressure;Samples;Min_cycle;Max_cycle;Signal;HPM_P1;HPM_P2
2021/01/20 00:04:20;;;;;;;9.37;4.17;;;;;;;;;;10286347;28;20233;-83
2021/01/20 00:09:23;;;;;;;9.20;4.70;;;;;;;;;;10294688;28;21008;-84
2021/01/20 00:14:25;;;;;;;10.20;4.87;;;;;;;;;;10288450;28;20213;-83
2021/01/20 00:19:27;;;;;;;11.70;4.53;;;;;;;;;;10286658;28;20221;-83
2021/01/20 00:24:29;;;;;;;8.30;4.60;;;;;;;;;;10287245;28;20815;-83
2021/01/20 00:29:32;;;;;;;7.43;4.23;;;;;;;;;;10288607;28;20220;-83
2021/01/20 00:34:34;;;;;;;10.87;4.53;;;;;;;;;;10284382;28;20217;-84
2021/01/20 00:39:37;;;;;;;10.90;5.07;;;;;;;;;;10288471;28;20224;-84
2021/01/20 00:44:41;;;;;;;8.33;4.63;;;;;;;;;;10289693;28;20635;-83
2021/01/20 00:49:43;;;;;;;7.70;4.70;;;;;;;;;;10293311;28;20255;-82
2021/01/20 00:54:46;;;;;;;11.20;5.27;;;;;;;;;;10283827;28;20309;-82
2021/01/20 00:59:48;;;;;;;10.63;5.20;;;;;;;;;;10292603;28;20684;-82
2021/01/20 01:04:50;;;;;;;11.90;5.33;;;;;;;;;;10277950;28;20801;-82
2021/01/20 01:09:52;;;;;;;10.00;4.80;;;;;;;;;;10288806;28;20217;-83
2021/01/20 01:14:54;;;;;;;9.87;5.30;;;;;;;;;;10281526;28;20384;-82
2021/01/20 01:19:56;;;;;;;9.70;5.07;;;;;;;;;;10281439;28;21354;-81
2021/01/20 01:24:58;;;;;;;8.57;4.80;;;;;;;;;;10290996;28;20778;-83
2021/01/20 01:30:00;;;;;;;8.50;4.93;;;;;;;;;;10286430;28;20209;-83
2021/01/20 01:35:03;;;;;;;9.43;5.40;;;;;;;;;;10281857;28;20682;-83
2021/01/20 01:40:06;;;;;;;11.77;5.03;;;;;;;;;;10283837;28;20304;-83
2021/01/20 01:45:09;;;;;;;9.60;5.13;;;;;;;;;;10291552;28;20243;-83
2021/01/20 01:50:12;;;;;;;7.50;5.10;;;;;;;;;;10293249;28;22923;-84
2021/01/20 01:55:15;;;;;;;8.63;5.07;;;;;;;;;;10302539;28;20604;-83
2021/01/20 02:00:17;;;;;;;10.63;5.50;;;;;;;;;;10296651;28;20209;-84
2021/01/20 02:05:19;;;;;;;11.33;5.93;;;;;;;;;;10315054;28;20785;-83
2021/01/20 02:10:22;;;;;;;11.40;6.10;;;;;;;;;;10309744;28;20220;-83
2021/01/20 02:15:29;;;;;;;12.27;5.90;;;;;;;;;;10299770;28;20204;-83
2021/01/20 02:20:41;;;;;;;10.93;5.70;;;;;;;;;;10304778;28;20228;-83
2021/01/20 02:26:02;;;;;;;14.20;6.27;;;;;;;;;;10303207;28;20237;-83
2021/01/20 02:31:05;;;;;;;10.83;6.00;;;;;;;;;;10309359;28;20220;-83
2021/01/20 02:36:07;;;;;;;11.93;6.10;;;;;;;;;;10300827;28;20217;-83
2021/01/20 02:41:09;;;;;;;10.50;6.30;;;;;;;;;;10307563;28;20712;-82
2021/01/20 02:46:12;;;;;;;9.23;5.63;;;;;;;;;;10293529;28;20238;-83
2021/01/20 02:51:19;;;;;;;13.50;5.63;;;;;;;;;;10301521;28;20771;-83
2021/01/20 02:56:23;;;;;;;11.10;6.10;;;;;;;;;;10299559;28;20411;-83
2021/01/20 03:01:28;;;;;;;10.77;5.87;;;;;;;;;;10302235;28;20805;-83
2021/01/20 03:06:31;;;;;;;15.00;5.50;;;;;;;;;;10301827;28;20252;-82
2021/01/20 03:11:42;;;;;;;9.03;5.73;;;;;;;;;;10301931;28;20237;-82
2021/01/20 03:16:45;;;;;;;9.67;5.70;;;;;;;;;;10303484;28;20228;-83
2021/01/20 03:21:47;;;;;;;11.20;6.13;;;;;;;;;;10300515;28;20742;-82
2021/01/20 03:26:49;;;;;;;8.97;5.60;;;;;;;;;;10297532;28;20256;-83
2021/01/20 03:31:51;;;;;;;11.33;6.00;;;;;;;;;;10298280;28;20225;-82
2021/01/20 03:36:54;;;;;;;9.23;6.30;;;;;;;;;;10310031;28;20303;-83
2021/01/20 03:41:55;;;;;;;9.40;5.50;;;;;;;;;;10283097;28;20218;-83
2021/01/20 03:46:58;;;;;;;10.70;5.40;;;;;;;;;;10293488;28;20247;-84
2021/01/20 03:52:01;;;;;;;9.70;5.30;;;;;;;;;;10296129;28;20272;-84
2021/01/20 03:57:03;;;;;;;12.47;5.80;;;;;;;;;;10295004;28;20586;-83
2021/01/20 04:02:06;;;;;;;9.77;5.50;;;;;;;;;;10296118;28;20806;-84
2021/01/20 04:07:08;;;;;;;12.33;5.47;;;;;;;;;;10303689;28;20618;-83
2021/01/20 04:12:09;;;;;;;9.33;5.07;;;;;;;;;;10293295;28;20213;-83
2021/01/20 04:17:12;;;;;;;9.63;4.97;;;;;;;;;;10293233;28;20222;-84
2021/01/20 04:22:14;;;;;;;10.27;5.10;;;;;;;;;;10296815;28;20210;-83
2021/01/20 04:27:16;;;;;;;7.73;5.10;;;;;;;;;;10290257;28;20705;-84
2021/01/20 04:32:18;;;;;;;7.47;4.90;;;;;;;;;;10294634;28;20217;-84
2021/01/20 04:37:20;;;;;;;9.27;5.07;;;;;;;;;;10299830;28;20231;-84
2021/01/20 04:42:22;;;;;;;6.87;4.43;;;;;;;;;;10295110;28;20227;-83
2021/01/20 04:47:25;;;;;;;7.27;4.60;;;;;;;;;;10289901;28;20237;-83
2021/01/20 04:52:28;;;;;;;11.20;5.37;;;;;;;;;;10292742;28;20224;-83
2021/01/20 04:57:33;;;;;;;10.40;5.37;;;;;;;;;;10291411;28;20979;-83
2021/01/20 05:02:36;;;;;;;8.43;4.67;;;;;;;;;;10291736;28;20870;-83
2021/01/20 05:07:38;;;;;;;9.60;5.07;;;;;;;;;;10304816;28;20460;-84
2021/01/20 05:12:41;;;;;;;7.50;4.60;;;;;;;;;;10307666;28;20681;-83
2021/01/20 05:17:56;;;;;;;7.57;4.80;;;;;;;;;;10295886;28;20229;-83
2021/01/20 05:22:59;;;;;;;9.57;4.70;;;;;;;;;;10297900;28;20565;-83
2021/01/20 05:28:15;;;;;;;7.17;4.33;;;;;;;;;;10298301;28;20241;-83
2021/01/20 05:33:18;;;;;;;7.43;4.50;;;;;;;;;;10305535;28;20214;-84
2021/01/20 05:38:32;;;;;;;7.07;4.57;;;;;;;;;;10310874;28;20314;-87
2021/01/20 05:43:34;;;;;;;10.00;4.33;;;;;;;;;;10308049;28;20216;-84
2021/01/20 05:48:45;;;;;;;10.00;5.03;;;;;;;;;;10302571;28;20237;-84
2021/01/20 05:53:48;;;;;;;9.93;5.00;;;;;;;;;;10303071;28;21396;-79
2021/01/20 05:58:50;;;;;;;8.37;4.43;;;;;;;;;;10304087;28;20682;-87
2021/01/20 06:03:53;;;;;;;8.67;5.00;;;;;;;;;;10309710;28;20232;-86
2021/01/20 06:08:55;;;;;;;8.23;4.73;;;;;;;;;;10301755;28;20227;-89
2021/01/20 06:13:57;;;;;;;8.93;4.30;;;;;;;;;;10304115;28;20890;-81
2021/01/20 06:19:03;;;;;;;7.43;4.23;;;;;;;;;;10303828;28;20585;-84
2021/01/20 06:24:08;;;;;;;7.50;4.30;;;;;;;;;;10311124;28;20745;-80
2021/01/20 06:29:10;;;;;;;7.43;4.07;;;;;;;;;;10302736;28;20223;-80
2021/01/20 06:34:14;;;;;;;7.60;4.20;;;;;;;;;;10305832;28;20279;-80
2021/01/20 06:39:32;;;;;;;5.83;3.83;;;;;;;;;;10293558;28;20213;-80
2021/01/20 06:44:34;;;;;;;7.13;4.33;;;;;;;;;;10297796;28;20707;-79
2021/01/20 06:49:57;;;;;;;8.73;4.10;;;;;;;;;;10304499;28;20212;-78
2021/01/20 06:54:59;;;;;;;7.33;3.70;;;;;;;;;;10306399;28;20213;-77
2021/01/20 07:00:11;;;;;;;6.73;3.77;;;;;;;;;;10296728;28;20518;-78
2021/01/20 07:05:30;;;;;;;6.10;3.60;;;;;;;;;;10297510;28;20245;-79
2021/01/20 07:10:52;;;;;;;6.77;3.50;;;;;;;;;;10305587;28;20643;-78
2021/01/20 07:15:55;;;;;;;7.40;3.20;;;;;;;;;;10297138;28;20208;-79
2021/01/20 07:20:57;;;;;;;5.77;3.30;;;;;;;;;;10303320;28;20684;-78
2021/01/20 07:25:59;;;;;;;7.20;3.60;;;;;;;;;;10291053;28;20239;-79
2021/01/20 07:31:05;;;;;;;5.03;3.30;;;;;;;;;;10313511;28;20217;-77
2021/01/20 07:36:11;;;;;;;5.47;3.20;;;;;;;;;;10310388;28;20225;-78
2021/01/20 07:41:13;;;;;;;5.30;3.10;;;;;;;;;;10301791;28;20213;-78
2021/01/20 07:46:17;;;;;;;5.40;3.30;;;;;;;;;;10293512;28;20569;-79
2021/01/20 07:51:21;;;;;;;7.13;3.50;;;;;;;;;;10301484;28;20222;-79
2021/01/20 07:56:23;;;;;;;4.87;3.20;;;;;;;;;;10302719;28;20411;-78
2021/01/20 08:01:27;;;;;;;7.20;3.60;;;;;;;;;;10297680;28;20264;-79
2021/01/20 08:06:40;;;;;;;5.03;3.17;;;;;;;;;;10305930;28;20232;-79
2021/01/20 08:11:44;;;;;;;5.13;3.23;;;;;;;;;;10298025;28;20772;-80
2021/01/20 08:16:47;;;;;;;6.77;3.40;;;;;;;;;;10299417;28;20220;-80
2021/01/20 08:21:54;;;;;;;5.27;3.23;;;;;;;;;;10300275;28;20217;-80
2021/01/20 08:26:57;;;;;;;4.63;2.83;;;;;;;;;;10298915;28;20236;-78
2021/01/20 08:32:06;;;;;;;4.67;3.03;;;;;;;;;;10289240;28;20221;-79
2021/01/20 08:37:10;;;;;;;5.13;3.10;;;;;;;;;;10300811;28;20686;-78
2021/01/20 08:42:13;;;;;;;5.50;3.23;;;;;;;;;;10301185;28;20213;-79
2021/01/20 08:47:18;;;;;;;5.53;2.87;;;;;;;;;;10284121;28;20241;-80
2021/01/20 08:52:20;;;;;;;6.57;3.10;;;;;;;;;;10293926;28;20257;-78
2021/01/20 08:57:22;;;;;;;4.53;2.77;;;;;;;;;;10296801;28;20232;-78
2021/01/20 09:02:29;;;;;;;4.33;2.60;;;;;;;;;;10299320;28;20237;-79
2021/01/20 09:07:49;;;;;;;5.23;2.93;;;;;;;;;;10303307;28;20241;-79
2021/01/20 09:12:52;;;;;;;5.37;2.60;;;;;;;;;;10298062;28;20213;-79
2021/01/20 09:17:55;;;;;;;3.13;2.47;;;;;;;;;;10308493;28;20232;-80
2021/01/20 09:22:57;;;;;;;4.40;2.70;;;;;;;;;;10305352;28;20224;-79
2021/01/20 09:27:59;;;;;;;5.53;2.80;;;;;;;;;;10308387;28;20248;-79
2021/01/20 09:33:02;;;;;;;4.30;2.60;;;;;;;;;;10312700;28;20668;-78
2021/01/20 09:38:05;;;;;;;3.77;2.60;;;;;;;;;;10316084;28;20221;-79
2021/01/20 09:43:07;;;;;;;5.13;2.67;;;;;;;;;;10301762;28;20229;-79
2021/01/20 09:48:10;;;;;;;4.83;2.60;;;;;;;;;;10300331;28;20236;-80
2021/01/20 09:53:12;;;;;;;4.30;2.60;;;;;;;;;;10301316;28;20224;-79
2021/01/20 09:58:14;;;;;;;5.13;2.40;;;;;;;;;;10304577;28;20308;-78
2021/01/20 10:03:17;;;;;;;5.00;2.30;;;;;;;;;;10295913;28;20241;-79
2021/01/20 10:08:20;;;;;;;3.60;2.20;;;;;;;;;;10310261;28;20689;-80
2021/01/20 10:13:22;;;;;;;4.97;2.27;;;;;;;;;;10301283;28;20888;-79
2021/01/20 10:18:24;;;;;;;2.80;2.10;;;;;;;;;;10302057;28;20932;-80
2021/01/20 10:23:26;;;;;;;4.50;2.10;;;;;;;;;;10303750;28;20225;-80
2021/01/20 10:28:28;;;;;;;4.70;2.20;;;;;;;;;;10297230;28;20682;-80
2021/01/20 10:33:31;;;;;;;3.33;2.23;;;;;;;;;;10294268;28;20225;-80
2021/01/20 10:38:33;;;;;;;3.33;2.20;;;;;;;;;;10303808;28;20217;-80
2021/01/20 10:43:35;;;;;;;2.70;2.10;;;;;;;;;;10303749;28;21081;-80
2021/01/20 10:48:38;;;;;;;3.63;2.30;;;;;;;;;;10297363;28;20257;-80
2021/01/20 10:53:43;;;;;;;3.90;2.20;;;;;;;;;;10304354;28;20751;-80
2021/01/20 10:58:45;;;;;;;4.37;2.30;;;;;;;;;;10302220;28;20682;-80
2021/01/20 11:03:48;;;;;;;4.70;2.37;;;;;;;;;;10305122;28;20237;-80
2021/01/20 11:08:51;;;;;;;3.13;2.20;;;;;;;;;;10299013;28;20771;-80
2021/01/20 11:13:53;;;;;;;3.87;2.30;;;;;;;;;;10298687;28;20213;-79
2021/01/20 11:18:56;;;;;;;3.30;2.10;;;;;;;;;;10299598;28;20240;-80
2021/01/20 11:23:58;;;;;;;6.93;2.57;;;;;;;;;;10305513;28;20673;-80
2021/01/20 11:29:00;;;;;;;4.03;2.70;;;;;;;;;;10293084;28;20237;-80
2021/01/20 11:34:02;;;;;;;5.00;2.50;;;;;;;;;;10296244;28;20228;-80
2021/01/20 11:39:05;;;;;;;7.50;2.70;;;;;;;;;;10300324;28;20220;-80
2021/01/20 11:44:07;;;;;;;4.77;2.40;;;;;;;;;;10297243;28;20221;-78
2021/01/20 11:49:10;;;;;;;3.87;2.40;;;;;;;;;;10294974;28;20738;-78
2021/01/20 11:54:12;;;;;;;5.13;2.60;;;;;;;;;;10303316;28;20209;-79
2021/01/20 11:59:14;;;;;;;3.67;2.50;;;;;;;;;;10309254;28;20210;-78
2021/01/20 12:04:17;;;;;;;5.23;2.60;;;;;;;;;;10293802;28;23288;-79
2021/01/20 12:09:20;;;;;;;4.90;2.43;;;;;;;;;;10295932;28;20233;-80
2021/01/20 12:14:22;;;;;;;4.20;2.50;;;;;;;;;;10304524;28;20224;-79
2021/01/20 12:19:25;;;;;;;3.97;2.60;;;;;;;;;;10305572;28;20217;-79
2021/01/20 12:24:27;;;;;;;4.80;2.70;;;;;;;;;;10303023;28;20277;-79
2021/01/20 12:29:29;;;;;;;6.33;2.67;;;;;;;;;;10292031;28;20237;-79
2021/01/20 12:34:32;;;;;;;5.03;2.83;;;;;;;;;;10302049;28;20860;-78
2021/01/20 12:39:34;;;;;;;5.63;2.77;;;;;;;;;;10297016;28;20245;-78
2021/01/20 12:44:36;;;;;;;4.30;2.60;;;;;;;;;;10296783;28;20221;-79
2021/01/20 12:49:39;;;;;;;5.30;2.47;;;;;;;;;;10296466;28;20222;-78
2021/01/20 12:54:41;;;;;;;3.97;2.50;;;;;;;;;;10298002;28;20308;-78
2021/01/20 12:59:43;;;;;;;3.63;2.30;;;;;;;;;;10287917;28;20217;-79
2021/01/20 13:04:46;;;;;;;4.00;2.43;;;;;;;;;;10295882;28;20725;-79
2021/01/20 13:09:50;;;;;;;5.83;2.80;;;;;;;;;;10297596;28;20217;-79
2021/01/20 13:14:52;;;;;;;5.63;2.57;;;;;;;;;;10294582;28;20217;-79
2021/01/20 13:19:55;;;;;;;5.27;2.40;;;;;;;;;;10287417;28;20621;-78
2021/01/20 13:24:58;;;;;;;4.67;2.50;;;;;;;;;;10298207;28;20220;-79
2021/01/20 13:30:02;;;;;;;5.53;2.77;;;;;;;;;;10298103;28;20664;-79
2021/01/20 13:35:06;;;;;;;5.27;2.60;;;;;;;;;;10302636;28;20206;-79
2021/01/20 13:40:08;;;;;;;4.33;2.50;;;;;;;;;;10285453;28;20213;-79
2021/01/20 13:45:10;;;;;;;4.60;2.53;;;;;;;;;;10294496;28;20236;-79
2021/01/20 13:50:13;;;;;;;5.07;2.67;;;;;;;;;;10295224;28;20672;-79
2021/01/20 13:55:24;;;;;;;5.17;2.30;;;;;;;;;;10305450;28;20292;-80
2021/01/20 14:00:26;;;;;;;7.10;2.53;;;;;;;;;;10310353;28;20213;-80
2021/01/20 14:05:29;;;;;;;3.67;2.30;;;;;;;;;;10301620;28;20233;-80
2021/01/20 14:10:32;;;;;;;4.23;2.37;;;;;;;;;;10307923;28;20248;-79
2021/01/20 14:15:34;;;;;;;4.20;2.50;;;;;;;;;;10301204;28;20228;-78
2021/01/20 14:20:36;;;;;;;3.87;2.43;;;;;;;;;;10300644;28;20224;-78
2021/01/20 14:25:38;;;;;;;3.90;2.40;;;;;;;;;;10296065;28;20237;-79
2021/01/20 14:30:40;;;;;;;3.77;2.20;;;;;;;;;;10297441;28;20229;-78
2021/01/20 14:35:43;;;;;;;3.97;2.23;;;;;;;;;;10305077;28;20231;-78
2021/01/20 14:40:45;;;;;;;4.40;2.10;;;;;;;;;;10304316;28;20221;-78
2021/01/20 14:45:47;;;;;;;4.37;2.30;;;;;;;;;;10302626;28;20247;-78
2021/01/20 14:50:50;;;;;;;4.47;2.20;;;;;;;;;;10303396;28;20236;-79
2021/01/20 14:55:52;;;;;;;3.87;2.40;;;;;;;;;;10296272;28;20209;-79
2021/01/20 15:00:54;;;;;;;4.13;2.30;;;;;;;;;;10304456;28;20224;-83
2021/01/20 15:05:57;;;;;;;6.50;2.50;;;;;;;;;;10311009;28;20706;-84
2021/01/20 15:10:59;;;;;;;4.10;2.37;;;;;;;;;;10297233;28;20503;-82
2021/01/20 15:16:01;;;;;;;4.60;2.40;;;;;;;;;;10300170;28;20218;-82
2021/01/20 15:21:05;;;;;;;4.10;2.50;;;;;;;;;;10304917;28;20296;-82
2021/01/20 15:26:07;;;;;;;6.30;2.70;;;;;;;;;;10300662;28;20577;-82
2021/01/20 15:31:09;;;;;;;4.10;2.50;;;;;;;;;;10296163;28;20220;-83
2021/01/20 15:36:12;;;;;;;5.37;2.50;;;;;;;;;;10294038;28;20221;-83
2021/01/20 15:41:14;;;;;;;9.23;2.43;;;;;;;;;;10293657;28;20309;-82
2021/01/20 15:46:16;;;;;;;7.13;2.70;;;;;;;;;;10295434;28;20640;-82
2021/01/20 15:51:20;;;;;;;5.47;2.80;;;;;;;;;;10300223;28;20213;-82
2021/01/20 15:56:22;;;;;;;5.10;2.60;;;;;;;;;;10297445;28;20216;-83
2021/01/20 16:01:24;;;;;;;5.07;2.57;;;;;;;;;;10293336;28;20462;-82
2021/01/20 16:06:27;;;;;;;5.77;2.67;;;;;;;;;;10296052;28;20239;-83
2021/01/20 16:11:29;;;;;;;5.13;2.77;;;;;;;;;;10300998;28;20631;-83
2021/01/20 16:16:31;;;;;;;7.10;3.00;;;;;;;;;;10298259;28;20221;-82
2021/01/20 16:21:34;;;;;;;6.67;3.13;;;;;;;;;;10293377;28;20275;-83
2021/01/20 16:26:36;;;;;;;9.73;2.80;;;;;;;;;;10294477;28;20235;-83
2021/01/20 16:31:38;;;;;;;6.80;2.90;;;;;;;;;;10288394;28;20326;-83
2021/01/20 16:36:42;;;;;;;5.37;2.90;;;;;;;;;;10296154;28;20220;-83
2021/01/20 16:41:44;;;;;;;7.33;2.90;;;;;;;;;;10299594;28;20215;-82
2021/01/20 16:46:46;;;;;;;4.03;2.50;;;;;;;;;;10278477;28;20263;-82
2021/01/20 16:51:49;;;;;;;4.20;2.43;;;;;;;;;;10289050;28;20521;-82
2021/01/20 16:56:51;;;;;;;5.07;2.33;;;;;;;;;;10297373;28;20741;-82
2021/01/20 17:01:53;;;;;;;4.60;2.57;;;;;;;;;;10287996;28;20247;-84
2021/01/20 17:06:56;;;;;;;5.93;3.03;;;;;;;;;;10291790;28;20666;-82
2021/01/20 17:11:58;;;;;;;5.47;2.97;;;;;;;;;;10289793;28;20223;-82
2021/01/20 17:17:00;;;;;;;4.57;2.70;;;;;;;;;;10289397;28;20229;-82
2021/01/20 17:22:04;;;;;;;4.27;2.47;;;;;;;;;;10295888;28;20312;-84
2021/01/20 17:27:05;;;;;;;5.60;2.70;;;;;;;;;;10297308;28;20236;-83
2021/01/20 17:32:07;;;;;;;5.83;2.80;;;;;;;;;;10303654;28;20257;-83
2021/01/20 17:37:10;;;;;;;4.50;2.87;;;;;;;;;;10311291;28;20213;-86
2021/01/20 17:42:13;;;;;;;6.17;2.93;;;;;;;;;;10314004;28;20307;-88
2021/01/20 17:47:15;;;;;;;5.37;3.00;;;;;;;;;;10321027;28;20232;-86
2021/01/20 17:52:18;;;;;;;5.20;3.20;;;;;;;;;;10295110;28;20317;-86
2021/01/20 17:57:20;;;;;;;4.63;2.90;;;;;;;;;;10299518;28;20213;-91
2021/01/20 18:02:22;;;;;;;6.00;3.10;;;;;;;;;;10310938;28;20237;-91
2021/01/20 18:07:25;;;;;;;7.13;3.03;;;;;;;;;;10323095;28;20299;-92
2021/01/20 18:12:27;;;;;;;6.53;3.10;;;;;;;;;;10333907;28;20636;-90
2021/01/20 18:17:29;;;;;;;4.93;3.03;;;;;;;;;;10329118;28;20639;-91
2021/01/20 18:22:32;;;;;;;5.20;2.77;;;;;;;;;;10326590;28;20284;-91
2021/01/20 18:27:34;;;;;;;4.50;2.70;;;;;;;;;;10328176;28;20639;-90
2021/01/20 18:32:36;;;;;;;4.83;2.80;;;;;;;;;;10316784;28;20221;-90
2021/01/20 18:37:39;;;;;;;7.47;3.03;;;;;;;;;;10323792;28;20710;-90
2021/01/20 18:42:41;;;;;;;8.77;3.83;;;;;;;;;;10317764;28;20220;-90
2021/01/20 18:47:43;;;;;;;4.97;2.87;;;;;;;;;;10318072;28;20236;-93
2021/01/20 18:52:46;;;;;;;6.67;3.10;;;;;;;;;;10313347;28;20234;-90
2021/01/20 18:57:48;;;;;;;7.40;3.27;;;;;;;;;;10321240;28;20228;-90
2021/01/20 19:02:50;;;;;;;5.43;3.17;;;;;;;;;;10320162;28;20268;-90
2021/01/20 19:07:53;;;;;;;5.50;2.90;;;;;;;;;;10337650;28;20352;-92
2021/01/20 19:12:56;;;;;;;5.73;3.30;;;;;;;;;;10337069;28;20218;-91
2021/01/20 19:17:58;;;;;;;6.47;3.07;;;;;;;;;;10302668;28;20496;-92
2021/01/20 19:23:02;;;;;;;4.27;2.57;;;;;;;;;;10313353;28;20214;-90
2021/01/20 19:28:04;;;;;;;5.23;2.70;;;;;;;;;;10313667;28;20260;-92
2021/01/20 19:33:06;;;;;;;4.93;2.80;;;;;;;;;;10313599;28;20220;-91
2021/01/20 19:38:09;;;;;;;5.37;2.50;;;;;;;;;;10318880;28;20329;-91
2021/01/20 19:43:11;;;;;;;5.03;3.07;;;;;;;;;;10311092;28;20218;-91
2021/01/20 19:48:12;;;;;;;3.77;2.60;;;;;;;;;;10309618;28;20290;-92
2021/01/20 19:53:15;;;;;;;7.90;2.90;;;;;;;;;;10306519;28;20212;-90
2021/01/20 19:58:17;;;;;;;7.07;3.23;;;;;;;;;;10312086;28;20210;-89
2021/01/20 20:03:23;;;;;;;5.23;3.10;;;;;;;;;;10306554;28;20241;-90
2021/01/20 20:08:26;;;;;;;4.73;2.67;;;;;;;;;;10314232;28;20242;-92
2021/01/20 20:13:28;;;;;;;5.67;2.67;;;;;;;;;;10316343;28;20392;-88
2021/01/20 20:18:30;;;;;;;5.27;2.70;;;;;;;;;;10312996;28;20654;-89
2021/01/20 20:23:33;;;;;;;3.30;2.40;;;;;;;;;;10319237;28;20221;-92
2021/01/20 20:28:34;;;;;;;6.77;3.07;;;;;;;;;;10326188;28;20241;-90
2021/01/20 20:33:36;;;;;;;4.23;2.40;;;;;;;;;;10312279;28;20695;-90
2021/01/20 20:38:39;;;;;;;6.57;2.80;;;;;;;;;;10311893;28;20224;-90
2021/01/20 20:43:41;;;;;;;6.57;2.70;;;;;;;;;;10317690;28;20220;-91
2021/01/20 20:48:43;;;;;;;4.40;2.40;;;;;;;;;;10302431;28;20244;-87
2021/01/20 20:53:46;;;;;;;4.27;2.60;;;;;;;;;;10292938;28;20217;-91
2021/01/20 20:58:48;;;;;;;4.53;2.50;;;;;;;;;;10304914;28;20216;-91
2021/01/20 21:03:50;;;;;;;4.50;2.40;;;;;;;;;;10313456;28;20240;-88
2021/01/20 21:08:53;;;;;;;6.70;2.60;;;;;;;;;;10311235;28;20236;-89
2021/01/20 21:13:55;;;;;;;5.33;2.63;;;;;;;;;;10312900;28;20225;-90
2021/01/20 21:18:58;;;;;;;5.83;2.50;;;;;;;;;;10317943;28;20212;-89
2021/01/20 21:24:01;;;;;;;5.50;2.63;;;;;;;;;;10315134;28;20227;-90
2021/01/20 21:29:04;;;;;;;6.87;2.50;;;;;;;;;;10321536;28;20236;-91
2021/01/20 21:34:06;;;;;;;4.80;2.57;;;;;;;;;;10320024;28;20210;-90
2021/01/20 21:39:13;;;;;;;4.73;2.60;;;;;;;;;;10316276;28;20227;-89
2021/01/20 21:44:16;;;;;;;4.70;2.90;;;;;;;;;;10319972;28;20223;-91
2021/01/20 21:49:18;;;;;;;5.10;2.53;;;;;;;;;;10314723;28;20239;-90
2021/01/20 21:54:21;;;;;;;4.13;2.70;;;;;;;;;;10308637;28;20213;-90
2021/01/20 21:59:23;;;;;;;5.20;2.53;;;;;;;;;;10308906;28;20640;-88
2021/01/20 22:04:25;;;;;;;4.50;2.50;;;;;;;;;;10308924;28;20249;-91
2021/01/20 22:09:27;;;;;;;4.80;2.40;;;;;;;;;;10324016;28;20243;-87
2021/01/20 22:14:29;;;;;;;11.63;2.80;;;;;;;;;;10308073;28;20209;-88
2021/01/20 22:19:32;;;;;;;6.90;2.30;;;;;;;;;;10304574;28;20223;-89
2021/01/20 22:24:35;;;;;;;4.20;2.50;;;;;;;;;;10301245;28;20312;-87
2021/01/20 22:29:37;;;;;;;4.60;2.40;;;;;;;;;;10306203;28;20754;-90
2021/01/20 22:34:39;;;;;;;6.70;2.57;;;;;;;;;;10296690;28;20469;-88
2021/01/20 22:39:42;;;;;;;5.20;2.20;;;;;;;;;;10298189;28;20220;-89
2021/01/20 22:44:44;;;;;;;4.47;2.40;;;;;;;;;;10294808;28;20232;-89
2021/01/20 22:49:45;;;;;;;4.10;2.30;;;;;;;;;;10308248;28;20243;-88
2021/01/20 22:54:48;;;;;;;4.13;2.20;;;;;;;;;;10299065;28;20241;-87
2021/01/20 22:59:50;;;;;;;7.30;2.33;;;;;;;;;;10300729;28;20253;-89
2021/01/20 23:04:52;;;;;;;5.77;2.30;;;;;;;;;;10306648;28;20232;-89
2021/01/20 23:09:54;;;;;;;5.33;2.60;;;;;;;;;;10331138;28;20237;-92
2021/01/20 23:14:56;;;;;;;5.10;2.20;;;;;;;;;;10309659;28;20233;-89
2021/01/20 23:19:58;;;;;;;6.60;2.37;;;;;;;;;;10308007;28;20252;-88
2021/01/20 23:25:01;;;;;;;4.77;2.20;;;;;;;;;;10296068;28;20205;-90
2021/01/20 23:30:04;;;;;;;4.53;2.37;;;;;;;;;;10300916;28;20596;-90
2021/01/20 23:35:06;;;;;;;4.83;1.97;;;;;;;;;;10300533;28;20221;-87
2021/01/20 23:40:10;;;;;;;4.93;2.43;;;;;;;;;;10308288;28;20217;-89
2021/01/20 23:45:12;;;;;;;4.60;2.10;;;;;;;;;;10296404;28;20612;-88
2021/01/20 23:50:14;;;;;;;6.00;2.10;;;;;;;;;;10306024;28;20236;-90
2021/01/20 23:55:17;;;;;;;4.30;2.20;;;;;;;;;;10308600;28;20404;-90
